createdAt,value
2023-05-06T00:00:53.694Z,2.80
2023-05-06T00:03:24.269Z,3.07
2023-05-06T00:05:53.568Z,2.93
2023-05-06T00:08:22.979Z,2.90
2023-05-06T00:10:52.111Z,2.80
2023-05-06T00:13:21.284Z,2.53
2023-05-06T00:15:50.399Z,2.57
2023-05-06T00:18:22.297Z,2.50
2023-05-06T00:20:52.761Z,3.10
2023-05-06T00:23:21.888Z,2.93
2023-05-06T00:25:51.009Z,2.83
2023-05-06T00:28:20.126Z,3.00
2023-05-06T00:30:49.713Z,2.50
2023-05-06T00:33:18.830Z,2.90
2023-05-06T00:35:48.145Z,3.30
2023-05-06T00:38:19.576Z,2.60
2023-05-06T00:40:48.763Z,2.50
2023-05-06T00:43:17.911Z,2.37
2023-05-06T00:45:47.165Z,2.60
2023-05-06T00:48:17.300Z,2.50
2023-05-06T00:50:46.598Z,2.70
2023-05-06T00:53:20.313Z,2.70
2023-05-06T00:55:51.167Z,2.47
2023-05-06T00:58:21.187Z,2.50
2023-05-06T01:00:52.108Z,2.47
2023-05-06T01:03:21.423Z,3.00
2023-05-06T01:05:59.691Z,3.00
2023-05-06T01:08:36.062Z,2.93
2023-05-06T01:11:15.704Z,3.20
2023-05-06T01:13:51.218Z,2.90
2023-05-06T01:16:24.487Z,2.37
2023-05-06T01:18:55.565Z,2.73
2023-05-06T01:21:34.496Z,2.73
2023-05-06T01:24:05.188Z,3.07
2023-05-06T01:26:34.583Z,3.90
2023-05-06T01:29:04.092Z,2.70
2023-05-06T01:31:49.324Z,3.67
2023-05-06T01:34:24.478Z,3.00
2023-05-06T01:37:07.906Z,2.70
2023-05-06T01:39:40.328Z,3.30
2023-05-06T01:42:14.638Z,3.07
2023-05-06T01:44:44.891Z,3.17
2023-05-06T01:47:15.304Z,2.93
2023-05-06T01:49:44.709Z,2.90
2023-05-06T01:52:13.924Z,3.20
2023-05-06T01:54:44.342Z,3.23
2023-05-06T01:57:13.409Z,3.40
2023-05-06T01:59:42.563Z,2.90
2023-05-06T02:02:11.664Z,3.30
2023-05-06T02:04:40.786Z,3.60
2023-05-06T02:07:10.057Z,3.50
2023-05-06T02:09:39.593Z,3.30
2023-05-06T02:12:10.134Z,3.33
2023-05-06T02:14:39.256Z,3.07
2023-05-06T02:17:08.819Z,3.10
2023-05-06T02:19:37.878Z,3.00
2023-05-06T02:22:07.010Z,3.60
2023-05-06T02:24:36.071Z,3.33
2023-05-06T02:27:05.340Z,3.30
2023-05-06T02:29:35.858Z,3.57
2023-05-06T02:32:06.253Z,3.77
2023-05-06T02:34:35.330Z,2.80
2023-05-06T02:37:04.469Z,3.33
2023-05-06T02:39:33.531Z,3.00
2023-05-06T02:42:03.718Z,2.97
2023-05-06T02:44:32.798Z,3.30
2023-05-06T02:47:03.225Z,3.30
2023-05-06T02:49:32.344Z,3.40
2023-05-06T02:52:01.505Z,3.00
2023-05-06T02:54:30.600Z,3.63
2023-05-06T02:56:59.653Z,3.30
2023-05-06T02:59:28.816Z,3.30
2023-05-06T03:01:57.833Z,3.53
2023-05-06T03:04:28.382Z,3.60
2023-05-06T03:06:57.513Z,3.57
2023-05-06T03:09:26.597Z,3.17
2023-05-06T03:11:57.119Z,3.33
2023-05-06T03:14:26.684Z,2.93
2023-05-06T03:16:56.576Z,3.20
2023-05-06T03:19:27.397Z,3.27
2023-05-06T03:21:56.476Z,3.40
2023-05-06T03:24:26.083Z,3.23
2023-05-06T03:26:55.477Z,2.93
2023-05-06T03:29:24.668Z,2.97
2023-05-06T03:31:56.728Z,3.10
2023-05-06T03:34:28.826Z,2.90
2023-05-06T03:36:58.536Z,3.23
2023-05-06T03:39:29.480Z,3.50
2023-05-06T03:41:59.300Z,3.23
2023-05-06T03:44:28.741Z,3.07
2023-05-06T03:46:58.078Z,3.57
2023-05-06T03:49:28.562Z,4.03
2023-05-06T03:51:57.672Z,3.27
2023-05-06T03:54:27.836Z,3.80
2023-05-06T03:56:57.000Z,3.57
2023-05-06T03:59:26.121Z,3.37
2023-05-06T04:01:56.643Z,3.83
2023-05-06T04:04:28.230Z,3.40
2023-05-06T04:06:58.172Z,3.43
2023-05-06T04:09:27.344Z,3.33
2023-05-06T04:11:57.857Z,3.50
2023-05-06T04:14:28.456Z,3.60
2023-05-06T04:16:57.616Z,3.87
2023-05-06T04:19:28.173Z,3.97
2023-05-06T04:21:58.404Z,3.67
2023-05-06T04:24:28.567Z,3.80
2023-05-06T04:26:58.014Z,3.40
2023-05-06T04:29:27.275Z,3.77
2023-05-06T04:32:03.120Z,4.03
2023-05-06T04:34:36.266Z,3.37
2023-05-06T04:37:07.101Z,3.20
2023-05-06T04:39:47.203Z,3.43
2023-05-06T04:42:17.085Z,3.30
2023-05-06T04:44:53.968Z,3.33
2023-05-06T04:47:28.043Z,3.10
2023-05-06T04:49:58.884Z,4.20
2023-05-06T04:52:29.442Z,3.60
2023-05-06T04:54:58.938Z,3.77
2023-05-06T04:57:28.056Z,3.60
2023-05-06T04:59:58.732Z,3.30
2023-05-06T05:02:27.951Z,3.37
2023-05-06T05:04:58.694Z,4.40
2023-05-06T05:07:27.949Z,4.00
2023-05-06T05:09:57.077Z,4.63
2023-05-06T05:12:26.132Z,3.53
2023-05-06T05:14:55.733Z,3.67
2023-05-06T05:17:25.344Z,3.67
2023-05-06T05:19:54.863Z,3.40
2023-05-06T05:22:25.832Z,3.60
2023-05-06T05:24:54.922Z,4.73
2023-05-06T05:27:24.302Z,4.03
2023-05-06T05:29:55.003Z,4.07
2023-05-06T05:32:24.490Z,4.23
2023-05-06T05:34:54.086Z,3.67
2023-05-06T05:37:24.724Z,3.80
2023-05-06T05:39:53.786Z,4.07
2023-05-06T05:42:23.418Z,4.17
2023-05-06T05:44:52.664Z,3.80
2023-05-06T05:47:22.960Z,4.13
2023-05-06T05:49:53.104Z,3.97
2023-05-06T05:52:23.941Z,4.57
2023-05-06T05:54:53.160Z,4.17
2023-05-06T05:57:23.068Z,4.10
2023-05-06T05:59:52.415Z,4.03
2023-05-06T06:02:21.754Z,5.23
2023-05-06T06:04:50.977Z,4.50
2023-05-06T06:07:20.276Z,3.93
2023-05-06T06:09:50.824Z,3.97
2023-05-06T06:12:20.369Z,4.50
2023-05-06T06:14:49.491Z,3.90
2023-05-06T06:17:22.840Z,4.10
2023-05-06T06:19:57.142Z,4.37
2023-05-06T06:22:26.431Z,3.90
2023-05-06T06:24:59.048Z,4.13
2023-05-06T06:27:28.125Z,4.07
2023-05-06T06:29:57.969Z,3.97
2023-05-06T06:32:27.113Z,3.93
2023-05-06T06:34:56.233Z,3.23
2023-05-06T06:37:25.849Z,3.80
2023-05-06T06:39:54.913Z,4.17
2023-05-06T06:42:25.932Z,4.23
2023-05-06T06:45:10.359Z,3.90
2023-05-06T06:47:39.782Z,3.70
2023-05-06T06:50:10.685Z,3.77
2023-05-06T06:52:39.811Z,3.20
2023-05-06T06:55:10.292Z,3.67
2023-05-06T06:57:41.239Z,4.20
2023-05-06T07:00:11.370Z,4.27
2023-05-06T07:02:40.703Z,3.80
2023-05-06T07:05:10.554Z,3.70
2023-05-06T07:07:39.824Z,3.43
2023-05-06T07:10:09.876Z,4.30
2023-05-06T07:12:40.445Z,3.40
2023-05-06T07:15:10.599Z,3.93
2023-05-06T07:17:41.182Z,4.03
2023-05-06T07:20:11.533Z,3.57
2023-05-06T07:22:41.288Z,4.13
2023-05-06T07:25:11.379Z,4.20
2023-05-06T07:27:42.104Z,3.80
2023-05-06T07:30:11.978Z,3.97
2023-05-06T07:32:43.638Z,4.53
2023-05-06T07:35:13.111Z,4.00
2023-05-06T07:37:42.337Z,4.07
2023-05-06T07:40:11.987Z,3.83
2023-05-06T07:42:43.280Z,4.50
2023-05-06T07:45:12.955Z,4.00
2023-05-06T07:47:42.509Z,3.77
2023-05-06T07:50:12.048Z,4.20
2023-05-06T07:52:41.229Z,4.27
2023-05-06T07:55:11.654Z,4.40
2023-05-06T07:57:42.348Z,4.00
2023-05-06T08:00:12.774Z,3.93
2023-05-06T08:02:44.275Z,4.80
2023-05-06T08:05:14.120Z,4.63
2023-05-06T08:07:43.774Z,4.30
2023-05-06T08:10:13.038Z,4.30
2023-05-06T08:12:43.597Z,4.13
2023-05-06T08:15:13.118Z,3.67
2023-05-06T08:17:42.416Z,3.83
2023-05-06T08:20:12.426Z,3.97
2023-05-06T08:22:41.657Z,4.10
2023-05-06T08:25:11.556Z,4.00
2023-05-06T08:27:42.197Z,4.20
2023-05-06T08:30:12.394Z,4.03
2023-05-06T08:32:41.616Z,4.27
2023-05-06T08:35:11.614Z,3.77
2023-05-06T08:37:41.512Z,3.77
2023-05-06T08:40:19.195Z,4.00
2023-05-06T08:42:50.511Z,3.90
2023-05-06T08:45:20.020Z,3.80
2023-05-06T08:47:49.219Z,4.10
2023-05-06T08:50:18.497Z,4.67
2023-05-06T08:52:49.005Z,3.83
2023-05-06T08:55:20.560Z,4.30
2023-05-06T08:57:53.574Z,3.73
2023-05-06T09:00:22.834Z,3.87
2023-05-06T09:02:52.028Z,3.23
2023-05-06T09:05:21.180Z,4.03
2023-05-06T09:07:50.443Z,2.90
2023-05-06T09:10:19.840Z,3.37
2023-05-06T09:12:50.523Z,3.10
2023-05-06T09:15:24.440Z,3.00
2023-05-06T09:17:55.583Z,3.10
2023-05-06T09:20:25.103Z,3.47
2023-05-06T09:22:57.944Z,3.10
2023-05-06T09:25:27.495Z,3.27
2023-05-06T09:28:07.473Z,3.00
2023-05-06T09:30:40.828Z,2.87
2023-05-06T09:33:10.526Z,3.27
2023-05-06T09:35:42.001Z,3.10
2023-05-06T09:38:11.945Z,3.53
2023-05-06T09:40:43.780Z,3.37
2023-05-06T09:43:15.671Z,3.67
2023-05-06T09:45:46.274Z,3.53
2023-05-06T09:48:16.934Z,3.70
2023-05-06T09:50:46.597Z,3.60
2023-05-06T09:53:18.711Z,3.73
2023-05-06T09:55:50.693Z,3.83
2023-05-06T09:58:23.893Z,3.63
2023-05-06T10:00:54.165Z,4.20
2023-05-06T10:03:25.013Z,3.63
2023-05-06T10:05:57.211Z,3.10
2023-05-06T10:08:29.143Z,3.50
2023-05-06T10:10:58.483Z,3.30
2023-05-06T10:13:29.110Z,3.67
2023-05-06T10:16:01.754Z,3.00
2023-05-06T10:18:31.984Z,3.63
2023-05-06T10:21:02.133Z,3.57
2023-05-06T10:23:38.552Z,3.27
2023-05-06T10:26:13.704Z,4.20
2023-05-06T10:28:49.497Z,3.53
2023-05-06T10:31:19.206Z,3.60
2023-05-06T10:33:51.536Z,3.43
2023-05-06T10:36:23.892Z,3.20
2023-05-06T10:38:56.549Z,3.33
2023-05-06T10:41:28.880Z,4.27
2023-05-06T10:44:00.680Z,3.87
2023-05-06T10:46:35.069Z,4.07
2023-05-06T10:49:21.171Z,3.63
2023-05-06T10:52:13.808Z,3.60
2023-05-06T10:54:51.209Z,4.33
2023-05-06T10:57:26.514Z,3.77
2023-05-06T11:00:01.403Z,3.77
2023-05-06T11:02:32.156Z,4.27
2023-05-06T11:05:05.688Z,3.90
2023-05-06T11:07:35.199Z,3.97
2023-05-06T11:10:10.942Z,3.83
2023-05-06T11:12:49.011Z,4.50
2023-05-06T11:15:27.219Z,4.17
2023-05-06T11:17:57.822Z,4.00
2023-05-06T11:20:27.798Z,4.40
2023-05-06T11:22:57.839Z,4.03
2023-05-06T11:25:44.107Z,3.83
2023-05-06T11:28:16.970Z,4.10
2023-05-06T11:30:57.816Z,4.73
2023-05-06T11:33:33.275Z,4.70
2023-05-06T11:36:05.700Z,4.40
2023-05-06T11:38:43.303Z,4.20
2023-05-06T11:41:12.829Z,4.63
2023-05-06T11:43:46.828Z,4.27
2023-05-06T11:46:17.800Z,5.33
2023-05-06T11:48:47.186Z,5.00
2023-05-06T11:51:16.457Z,5.07
2023-05-06T11:53:45.611Z,5.07
2023-05-06T11:56:15.291Z,4.37
2023-05-06T11:58:44.479Z,4.50
2023-05-06T12:01:13.566Z,4.60
2023-05-06T12:03:44.328Z,5.30
2023-05-06T12:06:13.573Z,5.10
2023-05-06T12:08:43.015Z,4.77
2023-05-06T12:11:12.504Z,5.40
2023-05-06T12:13:41.895Z,4.90
2023-05-06T12:16:12.026Z,4.57
2023-05-06T12:18:43.002Z,4.53
2023-05-06T12:21:12.098Z,4.73
2023-05-06T12:23:52.904Z,5.00
2023-05-06T12:26:22.246Z,4.37
2023-05-06T12:29:07.871Z,4.77
2023-05-06T12:31:37.831Z,4.23
2023-05-06T12:34:08.311Z,4.60
2023-05-06T12:36:42.128Z,4.40
2023-05-06T12:39:12.687Z,5.30
2023-05-06T12:41:45.674Z,4.27
2023-05-06T12:44:37.644Z,4.63
2023-05-06T12:47:08.470Z,4.43
2023-05-06T12:49:50.112Z,3.93
2023-05-06T12:52:20.618Z,4.07
2023-05-06T12:54:50.556Z,3.77
2023-05-06T12:57:19.740Z,4.00
2023-05-06T12:59:49.455Z,3.80
2023-05-06T13:02:18.746Z,4.17
2023-05-06T13:04:50.274Z,4.03
2023-05-06T13:07:19.357Z,4.23
2023-05-06T13:09:48.435Z,4.30
2023-05-06T13:12:17.479Z,4.40
2023-05-06T13:14:46.572Z,4.27
2023-05-06T13:17:15.819Z,5.30
2023-05-06T13:19:45.176Z,5.00
2023-05-06T13:22:16.569Z,5.03
2023-05-06T13:24:45.657Z,4.30
2023-05-06T13:27:14.805Z,5.07
2023-05-06T13:29:44.060Z,4.50
2023-05-06T13:32:13.332Z,5.43
2023-05-06T13:34:42.421Z,4.80
2023-05-06T13:37:11.490Z,6.07
2023-05-06T13:39:42.185Z,5.10
2023-05-06T13:42:11.269Z,4.63
2023-05-06T13:44:40.512Z,4.43
2023-05-06T13:47:09.647Z,4.37
2023-05-06T13:49:38.851Z,4.50
2023-05-06T13:52:08.327Z,4.63
2023-05-06T13:54:38.641Z,4.90
2023-05-06T13:57:09.067Z,4.50
2023-05-06T13:59:38.191Z,4.53
2023-05-06T14:02:09.617Z,4.67
2023-05-06T14:04:39.143Z,4.57
2023-05-06T14:07:08.712Z,4.57
2023-05-06T14:09:37.772Z,4.63
2023-05-06T14:12:08.531Z,4.97
2023-05-06T14:14:37.676Z,3.70
2023-05-06T14:17:06.777Z,3.67
2023-05-06T14:19:35.870Z,4.60
2023-05-06T14:22:04.964Z,4.20
2023-05-06T14:24:34.083Z,4.33
2023-05-06T14:27:04.099Z,4.10
2023-05-06T14:29:34.527Z,4.13
2023-05-06T14:32:03.962Z,4.57
2023-05-06T14:34:35.941Z,4.37
2023-05-06T14:37:05.161Z,4.67
2023-05-06T14:39:34.585Z,4.30
2023-05-06T14:42:03.820Z,4.67
2023-05-06T14:44:34.293Z,5.10
2023-05-06T14:47:03.434Z,5.70
2023-05-06T14:49:32.566Z,4.67
2023-05-06T14:52:01.638Z,6.10
2023-05-06T14:54:30.810Z,5.60
2023-05-06T14:57:02.930Z,5.33
2023-05-06T14:59:33.391Z,5.60
2023-05-06T15:02:02.465Z,5.90
2023-05-06T15:04:31.682Z,5.43
2023-05-06T15:07:01.469Z,6.53
2023-05-06T15:09:43.919Z,6.27
2023-05-06T15:12:15.109Z,6.70
2023-05-06T15:14:46.109Z,6.97
2023-05-06T15:17:16.019Z,6.40
2023-05-06T15:19:45.928Z,6.60
2023-05-06T15:22:18.466Z,6.90
2023-05-06T15:24:47.520Z,7.50
2023-05-06T15:27:16.598Z,7.03
2023-05-06T15:29:47.037Z,6.77
2023-05-06T15:32:16.537Z,7.03
2023-05-06T15:34:45.786Z,7.33
2023-05-06T15:37:16.423Z,6.77
2023-05-06T15:39:45.602Z,7.27
2023-05-06T15:42:14.827Z,7.30
2023-05-06T15:44:43.909Z,6.93
2023-05-06T15:47:14.788Z,6.93
2023-05-06T15:52:15.853Z,7.20
2023-05-06T15:54:49.672Z,7.30
2023-05-06T15:57:19.261Z,7.57
2023-05-06T15:59:48.360Z,7.90
2023-05-06T16:04:51.067Z,7.13
2023-05-06T16:07:20.292Z,7.53
2023-05-06T16:09:50.185Z,7.80
2023-05-06T16:12:19.352Z,8.57
2023-05-06T16:14:48.387Z,8.37
2023-05-06T16:17:18.857Z,8.03
2023-05-06T16:19:47.917Z,7.77
2023-05-06T16:22:17.498Z,8.50
2023-05-06T16:24:46.560Z,7.37
2023-05-06T16:27:16.003Z,7.87
2023-05-06T16:29:45.161Z,7.70
2023-05-06T16:32:17.447Z,8.30
2023-05-06T16:34:48.022Z,7.60
2023-05-06T16:37:17.910Z,7.13
2023-05-06T16:39:47.363Z,8.57
2023-05-06T16:42:17.452Z,7.97
2023-05-06T16:44:46.568Z,7.70
2023-05-06T16:47:16.079Z,7.90
2023-05-06T16:49:45.379Z,8.73
2023-05-06T16:52:15.924Z,8.20
2023-05-06T16:54:45.484Z,8.33
2023-05-06T16:57:14.935Z,8.03
2023-05-06T16:59:44.467Z,9.10
2023-05-06T17:02:13.661Z,7.37
2023-05-06T17:04:42.999Z,8.07
2023-05-06T17:07:12.219Z,9.03
2023-05-06T17:09:46.528Z,8.30
2023-05-06T17:12:15.790Z,7.90
2023-05-06T17:14:44.863Z,7.97
2023-05-06T17:17:14.197Z,7.63
2023-05-06T17:19:43.392Z,7.70
2023-05-06T17:22:12.807Z,7.47
2023-05-06T17:24:43.460Z,7.70
2023-05-06T17:27:13.032Z,7.27
2023-05-06T17:29:42.193Z,8.30
2023-05-06T17:32:14.663Z,7.83
2023-05-06T17:34:44.040Z,7.63
2023-05-06T17:37:16.035Z,8.33
2023-05-06T17:39:47.656Z,8.07
2023-05-06T17:42:16.705Z,9.10
2023-05-06T17:44:46.136Z,7.97
2023-05-06T17:47:15.616Z,9.60
2023-05-06T17:49:45.671Z,8.63
2023-05-06T17:52:14.817Z,7.83
2023-05-06T17:54:46.048Z,8.87
2023-05-06T17:57:15.232Z,7.87
2023-05-06T17:59:44.303Z,7.80
2023-05-06T18:02:15.843Z,8.20
2023-05-06T18:04:45.059Z,7.30
2023-05-06T18:07:15.378Z,7.37
2023-05-06T18:09:51.760Z,6.87
2023-05-06T18:12:21.303Z,8.07
2023-05-06T18:14:50.375Z,7.83
2023-05-06T18:17:19.481Z,6.90
2023-05-06T18:19:50.467Z,6.90
2023-05-06T18:22:19.659Z,7.00
2023-05-06T18:24:54.464Z,7.30
2023-05-06T18:27:23.776Z,6.90
2023-05-06T18:29:53.306Z,6.80
2023-05-06T18:32:25.578Z,7.63
2023-05-06T18:34:54.785Z,7.07
2023-05-06T18:37:24.001Z,6.83
2023-05-06T18:39:54.469Z,7.53
2023-05-06T18:42:23.781Z,7.50
2023-05-06T18:44:53.100Z,6.93
2023-05-06T18:47:22.171Z,8.40
2023-05-06T18:49:54.893Z,8.10
2023-05-06T18:52:24.073Z,7.77
2023-05-06T18:54:54.834Z,7.80
2023-05-06T18:57:27.939Z,7.57
2023-05-06T18:59:57.416Z,7.67
2023-05-06T19:02:26.962Z,7.07
2023-05-06T19:04:56.668Z,7.90
2023-05-06T19:07:26.096Z,9.00
2023-05-06T19:09:56.820Z,7.83
2023-05-06T19:12:26.172Z,8.57
2023-05-06T19:14:55.418Z,8.10
2023-05-06T19:17:24.596Z,8.00
2023-05-06T19:19:53.740Z,8.83
2023-05-06T19:22:22.937Z,8.03
2023-05-06T19:24:56.457Z,8.30
2023-05-06T19:27:27.193Z,8.70
2023-05-06T19:29:56.522Z,8.17
2023-05-06T19:32:25.673Z,8.53
2023-05-06T19:34:54.981Z,8.00
2023-05-06T19:37:24.159Z,8.10
2023-05-06T19:39:53.219Z,8.30
2023-05-06T19:42:22.686Z,8.73
2023-05-06T19:44:53.362Z,10.37
2023-05-06T19:47:22.713Z,10.00
2023-05-06T19:49:52.309Z,7.73
2023-05-06T19:52:23.714Z,8.37
2023-05-06T19:54:55.896Z,7.40
2023-05-06T19:57:27.018Z,9.20
2023-05-06T19:59:57.646Z,9.03
2023-05-06T20:02:26.907Z,8.23
2023-05-06T20:04:56.037Z,8.73
2023-05-06T20:07:25.132Z,8.93
2023-05-06T20:09:56.003Z,8.97
2023-05-06T20:12:26.328Z,8.47
2023-05-06T20:14:57.229Z,9.43
2023-05-06T20:17:26.935Z,9.60
2023-05-06T20:19:57.216Z,9.00
2023-05-06T20:22:27.055Z,8.70
2023-05-06T20:25:09.678Z,8.97
2023-05-06T20:27:39.161Z,8.70
2023-05-06T20:30:12.529Z,8.93
2023-05-06T20:32:42.299Z,9.00
2023-05-06T20:35:12.310Z,8.77
2023-05-06T20:37:41.844Z,9.10
2023-05-06T20:40:12.092Z,8.30
2023-05-06T20:42:41.201Z,9.03
2023-05-06T20:45:15.408Z,8.50
2023-05-06T20:47:45.590Z,9.57
2023-05-06T20:50:17.392Z,8.90
2023-05-06T20:52:49.375Z,9.33
2023-05-06T20:55:23.751Z,9.07
2023-05-06T20:57:53.234Z,9.27
2023-05-06T21:00:24.118Z,8.47
2023-05-06T21:02:53.367Z,8.70
2023-05-06T21:05:22.495Z,9.20
2023-05-06T21:07:51.665Z,8.30
2023-05-06T21:10:21.097Z,8.73
2023-05-06T21:12:50.853Z,8.43
2023-05-06T21:15:20.185Z,8.73
2023-05-06T21:17:52.006Z,8.70
2023-05-06T21:20:21.314Z,9.23
2023-05-06T21:22:50.470Z,8.57
2023-05-06T21:25:19.661Z,8.87
2023-05-06T21:27:48.743Z,9.03
2023-05-06T21:30:17.935Z,8.63
2023-05-06T21:32:47.130Z,8.27
2023-05-06T21:35:18.138Z,8.63
2023-05-06T21:37:47.324Z,9.70
2023-05-06T21:40:16.424Z,9.13
2023-05-06T21:42:45.523Z,8.03
2023-05-06T21:45:16.132Z,9.33
2023-05-06T21:47:46.169Z,8.63
2023-05-06T21:50:16.768Z,9.00
2023-05-06T21:52:45.843Z,7.90
2023-05-06T21:55:14.981Z,8.27
2023-05-06T21:57:44.675Z,7.87
2023-05-06T22:00:15.914Z,7.43
2023-05-06T22:02:46.302Z,8.73
2023-05-06T22:05:17.437Z,8.43
2023-05-06T22:07:46.756Z,8.73
2023-05-06T22:10:15.933Z,8.37
2023-05-06T22:12:45.049Z,8.00
2023-05-06T22:15:14.778Z,7.90
2023-05-06T22:17:43.879Z,7.40
2023-05-06T22:20:15.108Z,8.17
2023-05-06T22:22:46.127Z,7.80
2023-05-06T22:25:15.229Z,8.33
2023-05-06T22:27:44.358Z,8.73
2023-05-06T22:30:15.788Z,8.00
2023-05-06T22:32:45.498Z,8.03
2023-05-06T22:35:14.914Z,9.73
2023-05-06T22:37:45.461Z,7.30
2023-05-06T22:40:15.034Z,6.87
2023-05-06T22:42:44.098Z,6.57
2023-05-06T22:45:13.520Z,6.37
2023-05-06T22:47:42.876Z,7.10
2023-05-06T22:50:12.999Z,6.70
2023-05-06T22:52:42.037Z,6.87
2023-05-06T22:55:12.856Z,6.30
2023-05-06T22:57:42.140Z,5.83
2023-05-06T23:00:13.661Z,6.23
2023-05-06T23:02:42.867Z,6.30
2023-05-06T23:07:53.414Z,5.60
2023-05-06T23:10:22.649Z,5.97
2023-05-06T23:12:51.757Z,5.93
2023-05-06T23:15:20.878Z,6.13
2023-05-06T23:17:50.031Z,5.70
2023-05-06T23:20:19.359Z,5.77
2023-05-06T23:22:48.554Z,5.17
2023-05-06T23:25:19.548Z,5.60
2023-05-06T23:27:48.625Z,6.37
2023-05-06T23:30:17.764Z,6.03
2023-05-06T23:32:46.856Z,5.70
2023-05-06T23:35:16.024Z,7.30
2023-05-06T23:37:45.137Z,5.87
2023-05-06T23:40:15.354Z,5.43
2023-05-06T23:42:46.052Z,6.40
2023-05-06T23:45:15.113Z,6.13
2023-05-06T23:47:44.230Z,6.77
2023-05-06T23:50:14.099Z,6.30
2023-05-06T23:52:43.503Z,6.40
2023-05-06T23:55:13.191Z,5.77
2023-05-06T23:57:42.588Z,6.30
